CST,Max TemperatureF,Mean TemperatureF,Min TemperatureF,Max Dew PointF,MeanDew PointF,Min DewpointF,Max Humidity, Mean Humidity, Min Humidity, Max Sea Level PressureIn, Mean Sea Level PressureIn, Min Sea Level PressureIn, Max VisibilityMiles, Mean VisibilityMiles, Min VisibilityMiles, Max Wind SpeedMPH, Mean Wind SpeedMPH, Max Gust SpeedMPH,PrecipitationIn, CloudCover, Events, WindDirDegrees
2013-2-1,52,44,35,32,24,16,70,47,24,30.48,30.38,30.28,10,10,10,15,6,18,0.00,0,,3
2013-2-2,69,51,33,46,34,22,89,63,37,30.34,30.25,30.15,10,10,10,20,7,25,0.00,3,,211
2013-2-3,66,50,33,41,33,26,96,60,24,30.26,30.20,30.14,10,10,5,18,4,26,0.00,0,,291
2013-2-4,59,49,39,42,36,31,85,63,40,30.12,30.04,29.97,10,10,10,12,5,15,0.00,3,,160
2013-2-5,64,55,45,56,50,41,100,86,72,30.06,30.00,29.94,10,5,0,9,3,20,0.00,7,Fog,189
2013-2-6,69,56,42,57,49,41,100,78,55,30.15,30.08,30.01,10,6,0,17,3,21,0.18,6,Fog-Rain,104
2013-2-7,69,59,49,57,55,51,100,84,68,29.97,29.93,29.89,10,7,4,7,4,9,T,6,,38
2013-2-8,59,51,42,56,49,37,100,86,71,30.24,30.09,29.95,10,9,5,16,6,22,0.00,6,,2
2013-2-9,63,49,34,45,38,32,92,66,39,30.27,30.18,30.07,10,10,6,13,6,16,0.00,2,,108
2013-2-10,64,59,53,61,57,48,100,86,71,30.07,29.95,29.88,10,6,0,23,10,31,2.44,8,Fog-Rain-Thunderstorm,146
2013-2-11,61,56,51,61,53,48,100,92,83,30.20,30.09,30.00,10,6,0,15,5,17,0.52,7,Fog-Rain-Thunderstorm,22
2013-2-12,54,51,48,49,47,44,100,90,80,30.13,29.90,29.78,10,6,0,35,7,47,1.62,8,Fog-Rain-Thunderstorm,52
2013-2-13,51,43,34,48,40,32,93,77,61,30.08,29.97,29.82,10,10,7,18,8,25,T,7,,296
2013-2-14,60,45,30,41,33,28,100,70,40,30.15,30.10,30.07,10,7,0,7,1,10,0.00,2,Fog,200
2013-2-15,62,48,33,41,35,30,96,65,34,30.19,30.15,30.11,10,10,7,16,6,20,0.00,2,,339
2013-2-16,48,38,28,30,21,15,69,48,26,30.30,30.25,30.19,10,10,10,20,10,28,0.00,1,,334
2013-2-17,60,43,26,34,26,21,85,56,27,30.34,30.25,30.17,10,10,10,15,8,21,0.00,2,,169
2013-2-18,67,53,38,55,45,33,93,73,52,30.20,30.05,29.91,10,9,2,31,17,43,0.55,5,Rain,166
2013-2-19,58,47,35,55,39,26,86,59,32,30.28,30.15,29.97,10,9,2,21,9,28,0.20,3,Rain,343
2013-2-20,55,44,33,30,23,18,82,53,24,30.30,30.19,30.09,10,10,10,15,6,20,0.00,3,,61
2013-2-21,64,53,42,63,44,21,93,67,40,30.08,29.88,29.73,10,8,1,25,9,33,2.10,8,Rain-Thunderstorm,108
2013-2-22,64,55,46,54,50,44,100,80,60,30.03,29.97,29.91,10,9,1,17,5,22,0.25,7,Rain-Thunderstorm,8
2013-2-23,59,49,38,48,42,36,93,75,57,30.01,29.97,29.91,10,10,10,20,5,21,0.00,2,,2
2013-2-24,69,52,35,41,37,33,92,60,28,30.05,29.95,29.78,10,10,9,14,6,17,0.00,0,,65
2013-2-25,64,58,52,61,55,40,93,72,51,29.78,29.58,29.41,10,8,1,39,11,48,0.77,8,Rain-Thunderstorm,125
2013-2-26,57,46,34,41,34,32,92,74,56,29.91,29.72,29.51,10,10,10,22,10,31,0.00,5,,250
2013-2-27,62,47,32,37,35,30,96,66,36,30.05,29.98,29.93,10,10,7,18,4,25,0.00,1,,298
2013-2-28,54,44,34,34,30,25,89,62,35,30.14,30.08,30.03,10,10,10,20,6,23,0.00,0,,316